Terminal Aerodrome Forecast
Issued by NWS Springfield, MO

Home | Current Version | Previous Version | Text Only | Print | Product List | Glossary On
Versions: 1 2 3 4 5 6 7 8 9 10 11 12 13 14 15 16 17 18
000
FTUS43 KSGF 180527
TAFSGF
TAF
KSGF 180527Z 1806/1906 14004KT 5SM BR FEW250
     FM180800 14010KT 4SM BR FEW020
     FM181300 15013G20KT 6SM BR FEW120
     FM181500 15020G29KT P6SM FEW130
     FM190300 17017G26KT P6SM BKN250 WS020/21050KT=

USA.gov is the U.S. government's official web portal to all federal, state and local government web resources and services.